Time;durP1;ratioP1;P1;durP2;ratioP2;P2;SDS_P1;SDS_P2;PMS_P1;PMS_P2;Temp;Humidity;BMP_temperature;BMP_pressure;BME280_temperature;BME280_humidity;BME280_pressure;Samples;Min_cycle;Max_cycle;Signal;HPM_P1;HPM_P2
2021/08/08 00:02:16;;;;;;;3.45;2.92;;;15.60;99.90;;;;;;4987256;28;20161;-54
2021/08/08 00:04:42;;;;;;;3.03;2.75;;;15.60;99.90;;;;;;4982076;28;20094;-55
2021/08/08 00:07:08;;;;;;;3.05;2.47;;;15.60;99.90;;;;;;4985814;28;20031;-55
2021/08/08 00:09:33;;;;;;;6.30;3.20;;;15.50;99.90;;;;;;4989546;28;20014;-50
2021/08/08 00:12:00;;;;;;;5.20;2.95;;;15.50;99.90;;;;;;4989185;28;20029;-54
2021/08/08 00:14:26;;;;;;;4.97;2.90;;;15.50;99.90;;;;;;4989569;28;20053;-54
2021/08/08 00:16:51;;;;;;;4.57;2.60;;;15.50;99.90;;;;;;4988303;28;20461;-54
2021/08/08 00:19:17;;;;;;;3.85;2.00;;;15.50;99.90;;;;;;4990720;28;20510;-55
2021/08/08 00:21:43;;;;;;;3.25;2.42;;;15.50;99.90;;;;;;4986507;28;20022;-51
2021/08/08 00:24:08;;;;;;;6.05;2.45;;;15.50;99.90;;;;;;4987858;28;20432;-53
2021/08/08 00:26:34;;;;;;;4.72;2.55;;;15.50;99.90;;;;;;4991822;28;20019;-54
2021/08/08 00:29:00;;;;;;;4.45;2.28;;;15.50;99.90;;;;;;4986443;28;20022;-54
2021/08/08 00:31:25;;;;;;;3.92;2.38;;;15.50;99.90;;;;;;4991823;28;20149;-54
2021/08/08 00:33:51;;;;;;;6.45;2.45;;;15.50;99.90;;;;;;4986629;28;20030;-54
2021/08/08 00:36:17;;;;;;;3.97;2.40;;;15.50;99.90;;;;;;4988101;28;20113;-53
2021/08/08 00:38:43;;;;;;;4.68;2.20;;;15.50;99.90;;;;;;4991490;28;20061;-50
2021/08/08 00:41:09;;;;;;;2.47;2.22;;;15.40;99.90;;;;;;4987524;28;20030;-54
2021/08/08 00:43:34;;;;;;;3.45;2.33;;;15.40;99.90;;;;;;4990625;28;20065;-54
2021/08/08 00:46:00;;;;;;;2.72;2.03;;;15.40;99.90;;;;;;4989859;28;20058;-52
2021/08/08 00:48:25;;;;;;;2.80;2.17;;;15.40;99.90;;;;;;4987228;28;20591;-50
2021/08/08 00:50:52;;;;;;;2.42;2.10;;;15.40;99.90;;;;;;4985849;28;20031;-50
2021/08/08 00:53:18;;;;;;;2.30;2.10;;;15.40;99.90;;;;;;4988202;28;20029;-51
2021/08/08 00:55:44;;;;;;;2.95;2.38;;;15.40;99.90;;;;;;4991472;28;20022;-53
2021/08/08 00:58:09;;;;;;;2.55;2.20;;;15.40;99.90;;;;;;4984292;28;20031;-52
2021/08/08 01:00:37;;;;;;;4.70;2.00;;;15.40;99.90;;;;;;4989196;28;20702;-52
2021/08/08 01:03:07;;;;;;;3.75;2.45;;;15.40;99.90;;;;;;4982426;28;20045;-54
2021/08/08 01:05:45;;;;;;;2.20;2.00;;;15.30;99.90;;;;;;4983600;28;20022;-51
2021/08/08 01:08:17;;;;;;;3.20;2.20;;;15.30;99.90;;;;;;4988400;28;20054;-52
2021/08/08 01:10:43;;;;;;;2.97;2.78;;;15.30;99.90;;;;;;4986342;28;20085;-54
2021/08/08 01:13:09;;;;;;;2.78;1.73;;;15.30;99.90;;;;;;4987930;28;20468;-51
2021/08/08 01:15:36;;;;;;;3.33;3.03;;;15.20;99.90;;;;;;4987916;28;20030;-51
2021/08/08 01:18:02;;;;;;;2.60;2.40;;;15.20;99.90;;;;;;4989222;28;20374;-52
2021/08/08 01:20:29;;;;;;;5.82;3.08;;;15.20;99.90;;;;;;4984089;28;20018;-51
2021/08/08 01:22:59;;;;;;;3.22;2.40;;;15.20;99.90;;;;;;4990066;28;20106;-50
2021/08/08 01:25:25;;;;;;;5.15;2.60;;;15.20;99.90;;;;;;4986191;28;20022;-52
2021/08/08 01:27:53;;;;;;;3.22;2.92;;;15.10;99.90;;;;;;4988882;28;20023;-50
2021/08/08 01:30:19;;;;;;;3.25;2.90;;;15.10;99.90;;;;;;4986643;28;20023;-52
2021/08/08 01:32:45;;;;;;;3.08;2.78;;;15.10;99.90;;;;;;4988105;28;20025;-50
2021/08/08 01:35:10;;;;;;;2.55;2.38;;;15.10;99.90;;;;;;4990504;28;20109;-51
2021/08/08 01:37:36;;;;;;;3.78;2.72;;;15.00;99.90;;;;;;4986769;28;20029;-53
2021/08/08 01:40:06;;;;;;;3.15;2.53;;;15.00;99.90;;;;;;4988931;28;20532;-54
2021/08/08 01:42:33;;;;;;;5.15;2.92;;;14.90;99.90;;;;;;4986337;28;20041;-50
2021/08/08 01:45:03;;;;;;;3.80;2.80;;;14.90;99.90;;;;;;4987247;28;20034;-49
2021/08/08 01:47:33;;;;;;;2.63;2.42;;;14.80;99.90;;;;;;4985217;28;20477;-51
2021/08/08 01:50:01;;;;;;;3.75;3.38;;;14.80;99.90;;;;;;4987168;28;20221;-53
2021/08/08 01:52:27;;;;;;;4.13;2.83;;;14.80;99.90;;;;;;4990011;28;20018;-50
2021/08/08 01:54:54;;;;;;;3.05;2.80;;;14.70;99.90;;;;;;4986454;28;20448;-50
2021/08/08 01:57:20;;;;;;;3.53;3.22;;;14.70;99.90;;;;;;4989353;28;20054;-51
2021/08/08 01:59:45;;;;;;;3.03;2.72;;;14.60;99.90;;;;;;4985341;28;20481;-50
2021/08/08 02:02:13;;;;;;;4.72;3.10;;;14.60;99.90;;;;;;4987893;28;20129;-50
2021/08/08 02:04:40;;;;;;;4.25;2.75;;;14.60;99.90;;;;;;4984826;28;20022;-50
2021/08/08 02:07:16;;;;;;;3.13;2.92;;;14.60;99.90;;;;;;4987716;28;20492;-51
2021/08/08 02:09:43;;;;;;;4.10;3.05;;;14.50;99.90;;;;;;4989221;28;20022;-50
2021/08/08 02:12:09;;;;;;;3.38;3.08;;;14.50;99.90;;;;;;4984829;28;20033;-53
2021/08/08 02:14:35;;;;;;;3.15;2.65;;;14.50;99.90;;;;;;4988195;28;20109;-54
2021/08/08 02:17:01;;;;;;;5.93;3.25;;;14.50;99.90;;;;;;4985151;28;20109;-54
2021/08/08 02:19:27;;;;;;;3.38;2.90;;;14.40;99.90;;;;;;4987706;28;20092;-54
2021/08/08 02:21:54;;;;;;;4.20;2.88;;;14.40;99.90;;;;;;4985862;28;20030;-51
2021/08/08 02:24:19;;;;;;;6.03;2.95;;;14.40;99.90;;;;;;4988827;28;20129;-51
2021/08/08 02:26:45;;;;;;;3.90;3.28;;;14.40;99.90;;;;;;4984697;28;20584;-54
2021/08/08 02:29:11;;;;;;;4.53;2.75;;;14.40;99.90;;;;;;4987381;28;20077;-53
2021/08/08 02:31:39;;;;;;;6.55;3.42;;;14.40;99.90;;;;;;4983708;28;20022;-54
2021/08/08 02:34:06;;;;;;;4.70;3.28;;;14.30;99.90;;;;;;4986445;28;20073;-52
2021/08/08 02:36:31;;;;;;;5.25;2.65;;;14.30;99.90;;;;;;4987685;28;20022;-50
2021/08/08 02:38:57;;;;;;;6.80;3.45;;;14.30;99.90;;;;;;4984292;28;20034;-53
2021/08/08 02:41:23;;;;;;;3.42;3.13;;;14.30;99.90;;;;;;4989088;28;20022;-51
2021/08/08 02:43:48;;;;;;;3.78;3.25;;;14.20;99.90;;;;;;4985058;28;20685;-50
2021/08/08 02:46:14;;;;;;;3.85;3.55;;;14.20;99.90;;;;;;4987521;28;20496;-49
2021/08/08 02:48:39;;;;;;;3.72;3.33;;;14.20;99.90;;;;;;4984579;28;20019;-51
2021/08/08 02:51:05;;;;;;;4.38;3.00;;;14.20;99.90;;;;;;4986401;28;20102;-50
2021/08/08 02:53:31;;;;;;;3.95;3.40;;;14.20;99.90;;;;;;4988927;28;20177;-50
2021/08/08 02:55:56;;;;;;;4.18;3.05;;;14.10;99.90;;;;;;4984571;28;20448;-50
2021/08/08 02:58:22;;;;;;;3.88;3.25;;;14.10;99.90;;;;;;4988759;28;20061;-50
2021/08/08 03:00:47;;;;;;;3.30;3.00;;;14.10;99.90;;;;;;4985247;28;20031;-53
2021/08/08 03:03:13;;;;;;;3.22;2.60;;;14.10;99.90;;;;;;4986675;28;20034;-51
2021/08/08 03:05:39;;;;;;;4.80;3.67;;;14.00;99.90;;;;;;4983672;28;20026;-51
2021/08/08 03:08:04;;;;;;;4.60;3.22;;;14.00;99.90;;;;;;4984853;28;20064;-50
2021/08/08 03:10:30;;;;;;;3.15;2.95;;;14.00;99.90;;;;;;4984520;28;20026;-53
2021/08/08 03:12:56;;;;;;;3.55;3.25;;;14.00;99.90;;;;;;4984267;28;20110;-51
2021/08/08 03:15:21;;;;;;;3.35;3.05;;;14.00;99.90;;;;;;4988732;28;20042;-49
2021/08/08 03:17:47;;;;;;;3.80;3.10;;;14.00;99.90;;;;;;4984391;28;20401;-50
2021/08/08 03:20:13;;;;;;;3.50;3.20;;;13.90;99.90;;;;;;4984215;28;20416;-52
2021/08/08 03:22:39;;;;;;;4.20;2.92;;;14.00;99.90;;;;;;4987897;28;20058;-51
2021/08/08 03:25:06;;;;;;;6.68;3.13;;;13.90;99.90;;;;;;4986408;28;20713;-49
2021/08/08 03:27:32;;;;;;;4.78;3.00;;;13.90;99.90;;;;;;4983608;28;20101;-50
2021/08/08 03:29:57;;;;;;;7.03;3.70;;;13.90;99.90;;;;;;4987465;28;20125;-50
2021/08/08 03:32:23;;;;;;;4.13;3.08;;;13.80;99.90;;;;;;4982607;28;20557;-51
2021/08/08 03:34:49;;;;;;;3.00;2.80;;;13.80;99.90;;;;;;4988843;28;20084;-49
2021/08/08 03:37:14;;;;;;;6.35;2.95;;;13.80;99.90;;;;;;4984634;28;20038;-49
2021/08/08 03:39:40;;;;;;;3.42;2.65;;;13.80;99.90;;;;;;4987635;23;20054;-87
2021/08/08 03:42:06;;;;;;;3.47;2.58;;;13.70;99.90;;;;;;4977891;28;20033;-87
2021/08/08 03:44:32;;;;;;;3.58;2.38;;;13.70;99.90;;;;;;4989990;28;20027;-86
2021/08/08 03:46:57;;;;;;;2.70;2.50;;;13.70;99.90;;;;;;4999989;28;20041;-86
2021/08/08 03:49:23;;;;;;;4.60;2.55;;;13.70;99.90;;;;;;4992186;28;20026;-86
2021/08/08 03:51:48;;;;;;;4.05;2.42;;;13.70;99.90;;;;;;4995405;28;20054;-86
2021/08/08 03:54:14;;;;;;;2.58;2.30;;;13.70;99.90;;;;;;5000611;28;20022;-86
2021/08/08 03:56:40;;;;;;;2.45;2.25;;;13.70;99.90;;;;;;4986551;28;20039;-85
2021/08/08 03:59:05;;;;;;;5.70;2.72;;;13.70;99.90;;;;;;4998173;28;20114;-86
2021/08/08 04:01:31;;;;;;;2.80;2.15;;;13.70;99.90;;;;;;4997656;28;20086;-88
2021/08/08 04:03:57;;;;;;;3.95;2.60;;;13.70;99.90;;;;;;4997844;28;20071;-86
2021/08/08 04:06:22;;;;;;;3.35;2.70;;;13.70;99.90;;;;;;4994926;28;20195;-85
2021/08/08 04:08:48;;;;;;;2.88;2.65;;;13.80;99.90;;;;;;5000705;28;20030;-86
2021/08/08 04:11:14;;;;;;;4.38;2.47;;;13.80;99.90;;;;;;4999489;28;20030;-87
2021/08/08 04:13:40;;;;;;;5.53;3.00;;;13.80;99.90;;;;;;4999670;28;20046;-87
2021/08/08 04:16:06;;;;;;;3.35;2.67;;;13.90;99.90;;;;;;4997951;28;20031;-87
2021/08/08 04:18:32;;;;;;;7.53;3.13;;;13.90;99.90;;;;;;4991248;28;20050;-87
2021/08/08 04:20:58;;;;;;;2.63;2.42;;;13.90;99.90;;;;;;4995823;28;20046;-86
2021/08/08 04:23:24;;;;;;;3.22;2.70;;;13.90;99.90;;;;;;4997766;28;20111;-87
2021/08/08 04:25:49;;;;;;;4.80;2.65;;;14.00;99.90;;;;;;4994563;28;20437;-86
2021/08/08 04:28:15;;;;;;;4.50;2.70;;;14.00;99.90;;;;;;5013982;28;20014;-84
2021/08/08 04:30:41;;;;;;;3.80;2.70;;;14.00;99.90;;;;;;5012478;28;20030;-86
2021/08/08 04:33:07;;;;;;;5.00;2.92;;;14.00;99.90;;;;;;4998439;28;20027;-86
2021/08/08 04:35:34;;;;;;;3.40;2.88;;;14.00;99.90;;;;;;4986599;28;20705;-86
2021/08/08 04:38:01;;;;;;;3.58;2.72;;;14.00;99.90;;;;;;4990812;28;20541;-87
2021/08/08 04:40:27;;;;;;;4.57;2.95;;;14.00;99.90;;;;;;4996517;28;20034;-86
2021/08/08 04:42:53;;;;;;;5.72;3.10;;;14.10;99.90;;;;;;4987055;28;20027;-87
2021/08/08 04:45:20;;;;;;;4.45;3.13;;;14.10;99.90;;;;;;4990697;28;20041;-86
2021/08/08 04:47:46;;;;;;;3.15;2.90;;;14.10;99.90;;;;;;5000652;28;20025;-86
2021/08/08 04:50:12;;;;;;;3.72;2.97;;;14.20;99.90;;;;;;5003075;28;20528;-87
2021/08/08 04:52:38;;;;;;;7.20;3.40;;;14.20;99.90;;;;;;5003433;28;20027;-85
2021/08/08 04:55:06;;;;;;;3.83;3.25;;;14.30;99.90;;;;;;4995533;28;20034;-86
2021/08/08 04:57:32;;;;;;;2.70;2.47;;;14.30;99.90;;;;;;4997972;28;20031;-85
2021/08/08 04:59:58;;;;;;;4.93;3.08;;;14.30;99.90;;;;;;5000519;28;20038;-85
2021/08/08 05:02:24;;;;;;;3.13;2.92;;;14.40;99.90;;;;;;4998044;28;20094;-85
2021/08/08 05:04:50;;;;;;;3.53;3.20;;;14.40;99.90;;;;;;4993720;28;20076;-86
2021/08/08 05:07:15;;;;;;;3.20;2.85;;;14.50;99.90;;;;;;4991532;28;20078;-85
2021/08/08 05:09:41;;;;;;;9.77;3.65;;;14.50;99.90;;;;;;5003890;28;20026;-86
2021/08/08 05:12:07;;;;;;;4.15;3.03;;;14.50;99.90;;;;;;5006924;28;20064;-85
2021/08/08 05:14:33;;;;;;;4.88;2.80;;;14.60;99.90;;;;;;4996318;28;20102;-86
2021/08/08 05:17:00;;;;;;;3.83;3.35;;;14.60;99.90;;;;;;5007664;28;20037;-87
2021/08/08 05:19:26;;;;;;;3.08;2.50;;;14.70;99.90;;;;;;4997278;28;20023;-85
2021/08/08 05:21:52;;;;;;;3.90;3.00;;;14.70;99.90;;;;;;5004560;28;20070;-83
2021/08/08 05:24:20;;;;;;;3.85;2.53;;;14.70;99.90;;;;;;4999772;28;20023;-86
2021/08/08 05:26:46;;;;;;;3.28;2.50;;;14.80;99.90;;;;;;5002306;28;20033;-87
2021/08/08 05:29:12;;;;;;;4.93;3.13;;;14.80;99.90;;;;;;5000980;28;20022;-86
2021/08/08 05:31:39;;;;;;;3.10;2.33;;;14.80;99.90;;;;;;5010007;28;20062;-85
2021/08/08 05:34:05;;;;;;;4.85;2.45;;;14.90;99.90;;;;;;4994236;28;20121;-84
2021/08/08 05:36:30;;;;;;;4.53;3.10;;;14.90;99.90;;;;;;4980164;28;20066;-86
2021/08/08 05:38:58;;;;;;;3.47;2.53;;;15.00;99.90;;;;;;4980950;28;20125;-86
2021/08/08 05:41:23;;;;;;;3.25;2.83;;;15.00;99.90;;;;;;4980428;28;20027;-85
2021/08/08 05:43:49;;;;;;;3.92;3.10;;;15.10;99.90;;;;;;4980258;28;20082;-86
2021/08/08 05:46:15;;;;;;;3.10;2.50;;;15.10;99.90;;;;;;4988821;28;20026;-86
2021/08/08 05:48:40;;;;;;;4.65;2.70;;;15.10;99.90;;;;;;4983683;28;20050;-86
2021/08/08 05:51:06;;;;;;;4.13;2.60;;;15.20;99.90;;;;;;4984631;28;20039;-87
2021/08/08 05:53:32;;;;;;;2.88;2.40;;;15.20;99.90;;;;;;4984127;28;20109;-86
2021/08/08 05:55:57;;;;;;;3.70;2.28;;;15.20;99.90;;;;;;4999553;28;20045;-87
2021/08/08 05:58:23;;;;;;;4.10;2.42;;;15.30;99.90;;;;;;4983933;28;20022;-86
2021/08/08 06:00:48;;;;;;;3.03;2.58;;;15.30;99.90;;;;;;4990478;28;20031;-86
2021/08/08 06:03:14;;;;;;;6.97;2.72;;;15.30;99.90;;;;;;5003466;28;20074;-87
2021/08/08 06:05:42;;;;;;;4.97;2.55;;;15.30;99.90;;;;;;4975562;28;20663;-85
2021/08/08 06:08:07;;;;;;;5.18;2.20;;;15.30;99.90;;;;;;4986273;28;20100;-88
2021/08/08 06:10:33;;;;;;;4.05;2.60;;;15.40;99.90;;;;;;4988861;28;20053;-86
2021/08/08 06:12:59;;;;;;;4.70;2.88;;;15.40;99.90;;;;;;4990157;28;20488;-84
2021/08/08 06:15:25;;;;;;;2.95;2.65;;;15.40;99.90;;;;;;4986511;28;20503;-87
2021/08/08 06:17:51;;;;;;;2.60;2.40;;;15.40;99.90;;;;;;4990328;28;20156;-86
2021/08/08 06:20:17;;;;;;;3.30;3.03;;;15.50;99.90;;;;;;4982182;28;20037;-86
2021/08/08 06:22:43;;;;;;;2.90;2.63;;;15.50;99.90;;;;;;4989754;28;20019;-86
2021/08/08 06:25:09;;;;;;;2.88;2.67;;;15.50;99.90;;;;;;4989966;28;20092;-86
2021/08/08 06:27:34;;;;;;;4.43;3.33;;;15.50;99.90;;;;;;4985628;28;20065;-87
2021/08/08 06:30:00;;;;;;;3.85;2.97;;;15.40;99.90;;;;;;4975329;28;20060;-87
2021/08/08 06:32:25;;;;;;;3.28;2.55;;;15.40;99.90;;;;;;4978847;28;20022;-88
2021/08/08 06:34:51;;;;;;;2.60;2.40;;;15.30;99.90;;;;;;4986067;28;20045;-88
2021/08/08 06:37:16;;;;;;;2.97;2.67;;;15.30;99.90;;;;;;4977809;28;20027;-88
2021/08/08 06:39:42;;;;;;;2.80;2.28;;;15.20;99.90;;;;;;4975696;28;20026;-86
2021/08/08 06:42:08;;;;;;;3.58;3.00;;;15.20;99.90;;;;;;4981287;28;20031;-87
2021/08/08 06:44:33;;;;;;;3.42;2.88;;;15.30;99.90;;;;;;4983562;28;20632;-88
2021/08/08 06:46:59;;;;;;;4.00;3.03;;;15.20;99.90;;;;;;4980097;28;20078;-87
2021/08/08 06:49:24;;;;;;;3.65;3.35;;;15.20;99.90;;;;;;4979775;28;20022;-87
2021/08/08 06:51:50;;;;;;;4.90;3.28;;;15.20;99.90;;;;;;4984712;28;20030;-88
2021/08/08 06:54:16;;;;;;;3.40;3.10;;;15.20;99.90;;;;;;4984422;28;20034;-86
2021/08/08 06:56:41;;;;;;;4.10;3.47;;;15.30;99.90;;;;;;4988730;28;20088;-88
2021/08/08 06:59:07;;;;;;;3.80;3.50;;;15.40;99.90;;;;;;4980803;28;20489;-87
2021/08/08 07:01:32;;;;;;;3.58;3.28;;;15.40;99.90;;;;;;4987106;28;20050;-86
2021/08/08 07:03:58;;;;;;;3.80;3.50;;;15.50;99.90;;;;;;4983626;28;20484;-87
2021/08/08 07:06:23;;;;;;;3.67;3.38;;;15.50;99.90;;;;;;4988050;28;20019;-86
2021/08/08 07:08:49;;;;;;;3.67;3.38;;;15.60;99.90;;;;;;4991550;28;20030;-88
2021/08/08 07:11:15;;;;;;;3.83;3.30;;;15.50;99.90;;;;;;4987899;28;20019;-87
2021/08/08 07:13:41;;;;;;;4.63;3.53;;;15.50;99.90;;;;;;4982469;28;20023;-87
2021/08/08 07:16:07;;;;;;;4.07;3.70;;;15.60;99.90;;;;;;4982510;28;20039;-87
2021/08/08 07:18:33;;;;;;;4.53;4.00;;;15.50;99.90;;;;;;4987310;28;20023;-87
2021/08/08 07:20:59;;;;;;;3.80;3.50;;;15.50;99.90;;;;;;4993518;28;20033;-86
2021/08/08 07:23:24;;;;;;;3.80;3.42;;;15.60;99.90;;;;;;4990261;28;20077;-87
2021/08/08 07:25:50;;;;;;;4.10;3.60;;;15.60;99.90;;;;;;4987281;28;20019;-86
2021/08/08 07:28:15;;;;;;;5.32;4.60;;;15.70;99.90;;;;;;4989715;28;20616;-87
2021/08/08 07:30:41;;;;;;;3.88;3.58;;;15.70;99.90;;;;;;4993648;28;20014;-86
2021/08/08 07:33:07;;;;;;;4.72;4.15;;;15.80;99.90;;;;;;4997033;28;20033;-85
2021/08/08 07:35:34;;;;;;;5.80;3.53;;;15.80;99.90;;;;;;4993880;28;20030;-87
2021/08/08 07:38:00;;;;;;;4.47;3.78;;;15.90;99.90;;;;;;4996115;28;20470;-87
2021/08/08 07:40:25;;;;;;;4.50;3.60;;;15.90;99.90;;;;;;4997534;28;20037;-86
2021/08/08 07:42:51;;;;;;;3.97;3.53;;;16.00;99.90;;;;;;4990962;28;20402;-85
2021/08/08 07:45:17;;;;;;;7.10;3.58;;;15.90;99.90;;;;;;4995069;28;20026;-87
2021/08/08 07:47:43;;;;;;;4.28;3.88;;;15.90;99.90;;;;;;4992387;28;20475;-84
2021/08/08 07:50:09;;;;;;;3.60;3.10;;;16.00;99.90;;;;;;4990818;28;20109;-86
2021/08/08 07:52:36;;;;;;;3.85;3.45;;;16.00;99.90;;;;;;4991765;28;20109;-84
2021/08/08 07:55:03;;;;;;;4.60;3.88;;;16.10;99.90;;;;;;4992735;28;20048;-86
2021/08/08 07:57:28;;;;;;;4.90;3.72;;;16.10;99.90;;;;;;4993051;28;20034;-86
2021/08/08 07:59:54;;;;;;;4.43;3.63;;;16.10;99.90;;;;;;4997705;28;20030;-85
2021/08/08 08:02:19;;;;;;;3.92;3.60;;;16.10;99.90;;;;;;4994207;28;20035;-85
2021/08/08 08:04:45;;;;;;;3.17;2.97;;;16.10;99.90;;;;;;4981982;28;20035;-85
2021/08/08 08:07:11;;;;;;;3.78;3.00;;;16.10;99.90;;;;;;5008958;28;20046;-84
2021/08/08 08:09:36;;;;;;;3.75;2.72;;;16.10;99.90;;;;;;5002837;28;20030;-84
2021/08/08 08:12:02;;;;;;;3.47;2.97;;;16.00;99.90;;;;;;5005628;28;20023;-85
2021/08/08 08:14:30;;;;;;;3.00;2.80;;;16.00;99.90;;;;;;5003193;28;20022;-84
2021/08/08 08:16:55;;;;;;;3.30;3.00;;;16.00;99.90;;;;;;5010763;28;20088;-85
2021/08/08 08:19:21;;;;;;;3.40;3.10;;;16.00;99.90;;;;;;4990450;28;20022;-86
2021/08/08 08:21:47;;;;;;;3.80;2.72;;;15.90;99.90;;;;;;4986321;28;20033;-86
2021/08/08 08:24:14;;;;;;;4.32;3.83;;;15.90;99.90;;;;;;4999176;28;20018;-86
2021/08/08 08:26:40;;;;;;;5.07;4.40;;;16.00;99.90;;;;;;4984223;28;20090;-85
2021/08/08 08:29:06;;;;;;;5.10;3.92;;;15.90;99.90;;;;;;5003519;28;20026;-85
2021/08/08 08:31:32;;;;;;;4.85;4.45;;;15.90;99.90;;;;;;4995875;28;20027;-86
2021/08/08 08:33:58;;;;;;;5.70;4.38;;;15.90;99.90;;;;;;4988777;28;20027;-86
2021/08/08 08:36:23;;;;;;;4.78;4.40;;;15.90;99.90;;;;;;4991574;28;20181;-86
2021/08/08 08:38:49;;;;;;;6.35;5.75;;;15.90;99.90;;;;;;4995743;28;20031;-86
2021/08/08 08:41:16;;;;;;;5.22;4.68;;;16.00;99.90;;;;;;4990925;28;20027;-87
2021/08/08 08:43:45;;;;;;;6.28;5.63;;;16.00;99.90;;;;;;4979917;28;20052;-86
2021/08/08 08:46:13;;;;;;;6.68;6.07;;;16.00;99.90;;;;;;4995355;28;20061;-86
2021/08/08 08:48:41;;;;;;;9.23;6.53;;;16.10;99.90;;;;;;4997247;28;20022;-85
2021/08/08 08:51:08;;;;;;;8.25;5.88;;;16.10;99.90;;;;;;5000331;28;20018;-89
2021/08/08 08:53:35;;;;;;;8.25;6.93;;;16.20;99.90;;;;;;4997785;28;20030;-85
2021/08/08 08:56:01;;;;;;;6.68;6.15;;;16.30;99.90;;;;;;4995103;28;20066;-85
2021/08/08 08:58:28;;;;;;;7.50;6.68;;;16.40;99.90;;;;;;4991346;28;20022;-86
2021/08/08 09:00:54;;;;;;;7.30;6.53;;;16.40;99.90;;;;;;5006296;28;20117;-85
2021/08/08 09:03:20;;;;;;;9.30;7.38;;;16.50;99.90;;;;;;4992879;28;20057;-86
2021/08/08 09:05:45;;;;;;;8.02;6.97;;;16.60;99.90;;;;;;4982532;28;20030;-85
2021/08/08 09:08:11;;;;;;;7.03;6.22;;;16.70;99.90;;;;;;5001576;28;20026;-85
2021/08/08 09:10:37;;;;;;;7.30;6.60;;;16.70;99.90;;;;;;4991862;28;20737;-86
2021/08/08 09:13:05;;;;;;;6.85;5.90;;;16.80;99.90;;;;;;5006713;28;20018;-86
2021/08/08 09:15:32;;;;;;;9.65;7.20;;;16.80;99.90;;;;;;4989604;28;20561;-86
2021/08/08 09:18:12;;;;;;;9.13;7.47;;;16.90;99.90;;;;;;4990574;28;20670;-86
2021/08/08 09:20:38;;;;;;;7.03;6.18;;;17.00;99.90;;;;;;5006927;28;20497;-86
2021/08/08 09:23:07;;;;;;;8.13;7.15;;;17.10;99.90;;;;;;5002373;28;20029;-86
2021/08/08 09:25:57;;;;;;;7.38;6.68;;;17.20;99.90;;;;;;4988904;28;20386;-86
2021/08/08 09:28:41;;;;;;;9.35;7.05;;;17.40;99.90;;;;;;4994820;28;20044;-85
2021/08/08 09:31:19;;;;;;;7.25;6.35;;;17.50;99.90;;;;;;4988104;28;20062;-85
2021/08/08 09:33:44;;;;;;;8.38;6.38;;;17.60;99.90;;;;;;4989635;28;20022;-85
2021/08/08 09:36:10;;;;;;;7.38;6.68;;;17.50;99.90;;;;;;4990313;28;20030;-87
2021/08/08 09:38:46;;;;;;;7.05;6.35;;;17.60;99.90;;;;;;4989822;28;20190;-87
2021/08/08 09:41:11;;;;;;;;;;;17.50;99.90;;;;;;4991381;28;20121;-85
2021/08/08 09:43:37;;;;;;;7.50;6.70;;;17.50;99.90;;;;;;4994179;28;19948;-86
2021/08/08 09:46:02;;;;;;;7.00;6.25;;;17.60;99.90;;;;;;4987083;28;20023;-86
2021/08/08 09:48:37;;;;;;;9.00;6.38;;;17.60;99.90;;;;;;4993074;28;20112;-86
2021/08/08 09:51:05;;;;;;;8.50;6.88;;;17.60;99.90;;;;;;4988516;28;20026;-86
2021/08/08 09:53:31;;;;;;;7.35;6.63;;;17.60;99.90;;;;;;4991794;28;20026;-86
2021/08/08 09:55:56;;;;;;;7.30;6.30;;;17.50;99.90;;;;;;4992174;28;20046;-86
2021/08/08 09:58:22;;;;;;;7.13;6.43;;;17.50;99.90;;;;;;4994541;28;20029;-86
2021/08/08 10:00:58;;;;;;;11.32;7.57;;;17.60;99.90;;;;;;4988930;28;20038;-86
2021/08/08 10:03:23;;;;;;;8.88;7.75;;;17.60;99.90;;;;;;5005420;28;20022;-84
2021/08/08 10:05:53;;;;;;;9.20;7.60;;;17.70;99.90;;;;;;4990254;28;20085;-86
2021/08/08 10:08:21;;;;;;;7.60;6.88;;;17.70;99.90;;;;;;4990284;28;20021;-86
2021/08/08 10:10:48;;;;;;;7.35;6.55;;;17.80;99.90;;;;;;4988115;28;20045;-87
2021/08/08 10:13:26;;;;;;;11.45;7.28;;;17.90;99.90;;;;;;4994268;28;20019;-85
2021/08/08 10:15:53;;;;;;;12.52;7.88;;;17.90;99.90;;;;;;4985840;28;20034;-87
2021/08/08 10:18:26;;;;;;;8.52;6.93;;;18.00;99.90;;;;;;4991217;28;20097;-85
2021/08/08 10:20:54;;;;;;;8.10;7.15;;;18.10;99.90;;;;;;4984502;28;20030;-85
2021/08/08 10:23:21;;;;;;;12.38;7.40;;;18.10;99.90;;;;;;4989529;28;20015;-86
2021/08/08 10:25:49;;;;;;;10.90;7.75;;;18.10;99.90;;;;;;4987611;28;20057;-84
2021/08/08 10:28:16;;;;;;;11.38;7.18;;;18.10;99.90;;;;;;5002881;28;20022;-86
2021/08/08 10:30:43;;;;;;;12.88;7.60;;;18.00;99.90;;;;;;4983644;28;20022;-84
2021/08/08 10:33:10;;;;;;;9.05;7.18;;;18.00;99.90;;;;;;4986024;28;20027;-85
2021/08/08 10:35:36;;;;;;;9.18;6.75;;;18.00;99.90;;;;;;4986053;28;20159;-86
2021/08/08 10:38:02;;;;;;;8.27;6.97;;;18.00;99.90;;;;;;4981822;28;20037;-84
2021/08/08 10:40:31;;;;;;;9.98;7.57;;;17.90;99.90;;;;;;4984208;28;20121;-87
2021/08/08 10:42:57;;;;;;;11.30;7.53;;;17.90;99.90;;;;;;4983403;28;20497;-87
2021/08/08 10:45:29;;;;;;;10.02;7.80;;;17.90;99.90;;;;;;4985366;28;20137;-85
2021/08/08 10:47:59;;;;;;;12.07;7.15;;;18.00;99.90;;;;;;4989335;28;20018;-86
2021/08/08 10:50:45;;;;;;;9.95;7.60;;;18.10;99.90;;;;;;4995063;28;20022;-84
2021/08/08 10:53:29;;;;;;;8.52;6.85;;;18.30;99.90;;;;;;4985968;28;20018;-87
2021/08/08 10:56:12;;;;;;;8.02;6.13;;;18.40;99.90;;;;;;4988201;28;20030;-86
2021/08/08 10:58:47;;;;;;;11.90;7.07;;;18.50;99.90;;;;;;4980628;28;20505;-85
2021/08/08 11:01:21;;;;;;;7.35;6.65;;;18.60;99.90;;;;;;4989034;28;20426;-86
2021/08/08 11:03:59;;;;;;;12.52;6.47;;;18.60;99.90;;;;;;4988637;28;20576;-86
2021/08/08 11:06:26;;;;;;;8.05;6.60;;;18.70;99.90;;;;;;4983805;28;20161;-86
2021/08/08 11:08:57;;;;;;;6.45;5.82;;;18.80;99.90;;;;;;4990448;28;20110;-85
2021/08/08 11:11:31;;;;;;;11.60;6.03;;;18.90;99.90;;;;;;4988416;28;20650;-86
2021/08/08 11:14:10;;;;;;;9.57;6.85;;;19.00;99.90;;;;;;4992462;28;20019;-85
2021/08/08 11:16:36;;;;;;;10.00;6.82;;;19.10;99.90;;;;;;4989206;28;20044;-84
2021/08/08 11:19:01;;;;;;;9.45;6.28;;;19.30;99.90;;;;;;4994208;28;20018;-84
2021/08/08 11:21:27;;;;;;;7.75;6.38;;;19.20;99.90;;;;;;4979165;28;20127;-86
2021/08/08 11:23:57;;;;;;;9.75;6.70;;;19.20;99.90;;;;;;4987074;28;20041;-85
2021/08/08 11:26:24;;;;;;;7.55;5.57;;;19.20;99.90;;;;;;4985511;28;20027;-85
2021/08/08 11:29:08;;;;;;;11.95;6.18;;;19.20;99.90;;;;;;4981501;28;20023;-84
2021/08/08 11:31:36;;;;;;;7.60;5.60;;;19.00;99.90;;;;;;4980258;28;20019;-83
2021/08/08 11:34:05;;;;;;;7.22;5.55;;;18.90;99.90;;;;;;4981101;28;20026;-85
2021/08/08 11:36:38;;;;;;;8.00;5.85;;;18.90;99.90;;;;;;4980166;28;20023;-84
2021/08/08 11:39:10;;;;;;;7.18;5.80;;;18.80;99.90;;;;;;4983625;28;20486;-84
2021/08/08 11:41:36;;;;;;;6.88;5.63;;;18.80;99.90;;;;;;4990943;28;20448;-85
2021/08/08 11:44:07;;;;;;;6.25;5.10;;;18.80;99.90;;;;;;4979327;28;20197;-85
2021/08/08 11:46:34;;;;;;;7.93;5.05;;;18.80;99.90;;;;;;4978214;28;20097;-85
2021/08/08 11:49:10;;;;;;;6.18;5.10;;;18.80;99.90;;;;;;4985598;28;20034;-84
2021/08/08 11:51:36;;;;;;;9.93;5.20;;;18.80;99.90;;;;;;5002494;28;20618;-85
2021/08/08 11:54:07;;;;;;;7.80;5.45;;;18.80;99.90;;;;;;4986583;28;20026;-84
2021/08/08 11:56:33;;;;;;;11.07;4.97;;;18.80;99.90;;;;;;4982880;28;20033;-84
2021/08/08 11:58:58;;;;;;;7.90;5.22;;;18.80;99.90;;;;;;4983703;28;20034;-85
2021/08/08 12:01:26;;;;;;;8.57;5.20;;;18.90;99.90;;;;;;4980748;28;20121;-84
2021/08/08 12:03:53;;;;;;;7.78;5.22;;;19.20;99.90;;;;;;4991113;28;20081;-85
2021/08/08 12:06:23;;;;;;;9.27;4.80;;;19.40;99.90;;;;;;4986420;28;20030;-83
2021/08/08 12:08:53;;;;;;;9.27;5.00;;;19.70;99.90;;;;;;4993819;28;20022;-84
2021/08/08 12:11:23;;;;;;;8.30;5.20;;;19.80;99.90;;;;;;4985294;28;20025;-84
2021/08/08 12:14:06;;;;;;;7.03;4.88;;;19.90;99.90;;;;;;4989478;28;20033;-83
2021/08/08 12:16:37;;;;;;;8.18;5.07;;;20.00;99.90;;;;;;4985506;28;20023;-84
2021/08/08 12:19:04;;;;;;;9.85;4.63;;;20.20;99.90;;;;;;4994162;28;20078;-84
2021/08/08 12:21:38;;;;;;;6.53;5.00;;;20.20;99.90;;;;;;4985064;28;20058;-84
2021/08/08 12:24:05;;;;;;;9.55;5.07;;;20.20;99.90;;;;;;4990035;28;20029;-83
2021/08/08 12:26:30;;;;;;;6.07;4.53;;;20.10;99.90;;;;;;4990133;28;20076;-83
2021/08/08 12:29:04;;;;;;;6.07;4.43;;;20.10;99.90;;;;;;4984263;28;20075;-82
2021/08/08 12:31:41;;;;;;;12.85;4.93;;;20.10;99.90;;;;;;4983730;28;20015;-82
2021/08/08 12:34:11;;;;;;;7.10;3.88;;;20.20;99.90;;;;;;4986722;28;20031;-83
2021/08/08 12:36:39;;;;;;;6.57;4.18;;;20.30;99.90;;;;;;4989754;28;20029;-82
2021/08/08 12:39:05;;;;;;;8.13;4.80;;;20.30;99.90;;;;;;4984817;28;20058;-82
2021/08/08 12:41:40;;;;;;;9.63;4.15;;;20.30;99.90;;;;;;4983801;28;20022;-84
2021/08/08 12:44:08;;;;;;;5.32;4.25;;;20.20;99.90;;;;;;4988814;28;20031;-82
2021/08/08 12:46:36;;;;;;;6.47;3.75;;;20.20;99.90;;;;;;5001322;28;20027;-81